Time;durP1;ratioP1;P1;durP2;ratioP2;P2;SDS_P1;SDS_P2;PMS_P1;PMS_P2;Temp;Humidity;BMP_temperature;BMP_pressure;BME280_temperature;BME280_humidity;BME280_pressure;Samples;Min_cycle;Max_cycle;Signal;HPM_P1;HPM_P2
2021/09/25 00:00:14;;;;;;;13.17;9.97;;;13.10;99.90;;;;;;6136515;23;20810;-85
2021/09/25 00:02:41;;;;;;;8.50;7.60;;;13.10;99.90;;;;;;6134366;23;20434;-84
2021/09/25 00:05:10;;;;;;;9.70;8.17;;;13.10;99.90;;;;;;6134509;23;20417;-86
2021/09/25 00:07:37;;;;;;;9.77;8.70;;;13.10;99.90;;;;;;6133957;23;20420;-85
2021/09/25 00:10:04;;;;;;;9.00;8.20;;;13.10;99.90;;;;;;6134256;23;20426;-86
2021/09/25 00:12:31;;;;;;;9.50;7.93;;;13.10;99.90;;;;;;6136323;23;20431;-84
2021/09/25 00:14:58;;;;;;;10.77;8.57;;;13.10;99.90;;;;;;6136431;23;20452;-86
2021/09/25 00:17:25;;;;;;;10.20;9.30;;;13.00;99.90;;;;;;6135568;23;20412;-87
2021/09/25 00:19:52;;;;;;;11.03;9.93;;;13.00;99.90;;;;;;6136421;23;20421;-85
2021/09/25 00:22:20;;;;;;;9.80;8.80;;;13.00;99.90;;;;;;6135738;23;20527;-85
2021/09/25 00:24:46;;;;;;;11.70;10.50;;;13.00;99.90;;;;;;6136341;23;20408;-86
2021/09/25 00:27:13;;;;;;;9.43;8.57;;;12.90;99.90;;;;;;6135264;23;20587;-87
2021/09/25 00:29:40;;;;;;;11.43;10.03;;;12.90;99.90;;;;;;6135815;23;20412;-86
2021/09/25 00:32:07;;;;;;;9.67;8.67;;;12.90;99.90;;;;;;6135235;23;20930;-87
2021/09/25 00:34:34;;;;;;;10.40;9.30;;;12.90;99.90;;;;;;6135680;23;20450;-84
2021/09/25 00:37:01;;;;;;;9.80;8.73;;;12.90;99.90;;;;;;6135063;23;20418;-86
2021/09/25 00:39:29;;;;;;;10.40;9.30;;;12.80;99.90;;;;;;6135282;23;20407;-84
2021/09/25 00:41:56;;;;;;;10.20;9.20;;;12.80;99.90;;;;;;6135885;23;20442;-85
2021/09/25 00:44:23;;;;;;;12.43;11.33;;;12.80;99.90;;;;;;6135528;23;20398;-85
2021/09/25 00:46:50;;;;;;;12.90;11.60;;;12.70;99.90;;;;;;6134594;23;20797;-84
2021/09/25 00:49:19;;;;;;;11.80;10.70;;;12.70;99.90;;;;;;6135359;23;20543;-86
2021/09/25 00:51:46;;;;;;;11.93;10.63;;;12.70;99.90;;;;;;6136051;23;20490;-86
2021/09/25 00:54:13;;;;;;;11.27;10.30;;;12.70;99.90;;;;;;6135828;23;20443;-85
2021/09/25 00:56:43;;;;;;;11.80;10.20;;;12.70;99.90;;;;;;6135267;23;20907;-87
2021/09/25 00:59:11;;;;;;;12.60;11.30;;;12.60;99.90;;;;;;6135049;23;20408;-86
2021/09/25 01:01:39;;;;;;;11.90;10.80;;;12.60;99.90;;;;;;6133815;23;20454;-87
2021/09/25 01:04:06;;;;;;;12.30;11.10;;;12.60;99.90;;;;;;6135339;23;20400;-86
2021/09/25 01:06:33;;;;;;;11.50;10.30;;;12.60;99.90;;;;;;6135451;23;20407;-85
2021/09/25 01:09:00;;;;;;;13.87;11.17;;;12.60;99.90;;;;;;6134749;23;20415;-84
2021/09/25 01:11:28;;;;;;;12.17;10.97;;;12.60;99.90;;;;;;6135005;23;20431;-85
2021/09/25 01:13:56;;;;;;;10.83;9.73;;;12.60;99.90;;;;;;6135560;23;20418;-84
2021/09/25 01:16:24;;;;;;;12.30;11.10;;;12.60;99.90;;;;;;6135177;23;20422;-84
2021/09/25 01:18:52;;;;;;;11.50;10.30;;;12.60;99.90;;;;;;6136406;23;20420;-86
2021/09/25 01:21:20;;;;;;;12.30;11.00;;;12.60;99.90;;;;;;6135579;23;20431;-86
2021/09/25 01:23:47;;;;;;;10.53;9.47;;;12.60;99.90;;;;;;6135668;23;20475;-86
2021/09/25 01:26:14;;;;;;;12.07;10.87;;;12.50;99.90;;;;;;6135216;23;20740;-86
2021/09/25 01:28:43;;;;;;;10.60;9.60;;;12.50;99.90;;;;;;6135316;23;20407;-87
2021/09/25 01:31:12;;;;;;;10.67;9.60;;;12.50;99.90;;;;;;6135971;23;20446;-84
2021/09/25 01:33:42;;;;;;;11.20;10.07;;;12.50;99.90;;;;;;6135581;23;20420;-86
2021/09/25 01:36:10;;;;;;;10.10;9.03;;;12.50;99.90;;;;;;6135046;23;20447;-87
2021/09/25 01:38:39;;;;;;;11.30;10.10;;;12.50;99.90;;;;;;6136252;23;20745;-87
2021/09/25 01:41:06;;;;;;;11.47;10.27;;;12.50;99.90;;;;;;6137394;23;20427;-86
2021/09/25 01:43:33;;;;;;;11.27;10.17;;;12.30;99.90;;;;;;6137702;23;20419;-86
2021/09/25 01:46:00;;;;;;;11.57;10.37;;;12.30;99.90;;;;;;6137677;23;20408;-84
2021/09/25 01:48:27;;;;;;;12.33;11.03;;;12.40;99.90;;;;;;6136971;23;20403;-87
2021/09/25 01:50:54;;;;;;;13.63;10.30;;;12.30;99.90;;;;;;6136890;23;20414;-86
2021/09/25 01:53:22;;;;;;;12.30;11.10;;;12.30;99.90;;;;;;6137644;23;20418;-86
2021/09/25 01:55:51;;;;;;;12.13;10.93;;;12.30;99.90;;;;;;6136555;23;20447;-86
2021/09/25 01:58:18;;;;;;;12.83;10.70;;;12.30;99.90;;;;;;6136920;23;20498;-86
2021/09/25 02:00:45;;;;;;;11.43;10.33;;;12.20;99.90;;;;;;6135982;23;20425;-87
2021/09/25 02:03:13;;;;;;;13.10;10.70;;;12.20;99.90;;;;;;6136650;23;20417;-85
2021/09/25 02:05:40;;;;;;;10.13;8.77;;;12.20;99.90;;;;;;6135969;23;20903;-86
2021/09/25 02:08:07;;;;;;;12.83;10.30;;;12.20;99.90;;;;;;6137382;23;20410;-86
2021/09/25 02:10:33;;;;;;;10.20;9.27;;;12.20;99.90;;;;;;6137195;23;20421;-86
2021/09/25 02:13:02;;;;;;;11.73;9.83;;;12.20;99.90;;;;;;6137498;23;20435;-86
2021/09/25 02:15:30;;;;;;;9.57;8.70;;;12.20;99.90;;;;;;6137124;23;20766;-85
2021/09/25 02:17:56;;;;;;;10.80;9.70;;;12.20;99.90;;;;;;6137925;23;20510;-84
2021/09/25 02:20:23;;;;;;;9.60;8.73;;;12.20;99.90;;;;;;6137310;23;20432;-86
2021/09/25 02:22:50;;;;;;;9.43;8.50;;;12.20;99.90;;;;;;6136817;23;20430;-86
2021/09/25 02:25:17;;;;;;;10.60;9.60;;;12.20;99.90;;;;;;6136001;23;20407;-85
2021/09/25 02:27:45;;;;;;;10.63;9.73;;;12.20;99.90;;;;;;6137109;23;20422;-86
2021/09/25 02:30:16;;;;;;;8.87;7.97;;;12.20;99.90;;;;;;6137241;23;20423;-86
2021/09/25 02:32:44;;;;;;;10.00;8.90;;;12.20;99.90;;;;;;6136753;23;20435;-84
2021/09/25 02:35:12;;;;;;;10.17;9.27;;;12.20;99.90;;;;;;6136218;23;20457;-84
2021/09/25 02:37:39;;;;;;;9.87;8.87;;;12.10;99.90;;;;;;6137308;23;20411;-87
2021/09/25 02:40:07;;;;;;;10.70;9.80;;;12.10;99.90;;;;;;6137381;23;20411;-86
2021/09/25 02:42:34;;;;;;;10.23;8.87;;;12.10;99.90;;;;;;6131341;23;20442;-84
2021/09/25 02:45:00;;;;;;;11.37;10.17;;;12.10;99.90;;;;;;6128283;23;20727;-84
2021/09/25 02:47:29;;;;;;;9.60;8.60;;;12.10;99.90;;;;;;6128335;23;20423;-84
2021/09/25 02:49:55;;;;;;;12.40;8.90;;;12.10;99.90;;;;;;6127941;23;20411;-84
2021/09/25 02:52:22;;;;;;;10.10;7.53;;;12.10;99.90;;;;;;6128209;23;20762;-83
2021/09/25 02:54:49;;;;;;;9.13;8.23;;;12.10;99.90;;;;;;6127827;23;20457;-84
2021/09/25 02:57:15;;;;;;;9.50;8.27;;;12.10;99.90;;;;;;6127899;23;20411;-84
2021/09/25 02:59:42;;;;;;;10.53;7.90;;;12.10;99.90;;;;;;6128502;23;20419;-84
2021/09/25 03:02:09;;;;;;;9.37;8.57;;;12.10;99.90;;;;;;6128202;23;20458;-83
2021/09/25 03:04:37;;;;;;;9.80;8.37;;;12.10;99.90;;;;;;6128215;23;20414;-84
2021/09/25 03:07:04;;;;;;;8.60;7.30;;;12.10;99.90;;;;;;6128131;23;20414;-84
2021/09/25 03:09:31;;;;;;;9.57;8.67;;;12.10;99.90;;;;;;6128364;23;20422;-84
2021/09/25 03:11:58;;;;;;;11.20;9.53;;;12.10;99.90;;;;;;6127868;23;20431;-84
2021/09/25 03:14:25;;;;;;;10.30;9.33;;;12.10;99.90;;;;;;6127919;23;20435;-83
2021/09/25 03:16:52;;;;;;;10.70;8.93;;;12.10;99.90;;;;;;6127873;23;20466;-84
2021/09/25 03:19:19;;;;;;;10.97;9.83;;;12.00;99.90;;;;;;6128459;23;20422;-84
2021/09/25 03:21:47;;;;;;;10.90;9.80;;;12.00;99.90;;;;;;6128070;23;20441;-83
2021/09/25 03:24:14;;;;;;;10.10;9.20;;;12.00;99.90;;;;;;6127923;23;20437;-84
2021/09/25 03:26:41;;;;;;;9.73;8.60;;;12.00;99.90;;;;;;6127435;23;20903;-83
2021/09/25 03:29:10;;;;;;;9.80;8.80;;;12.00;99.90;;;;;;6128133;23;20422;-83
2021/09/25 03:31:37;;;;;;;9.47;8.57;;;11.90;99.90;;;;;;6128110;23;20470;-83
2021/09/25 03:34:03;;;;;;;12.20;10.93;;;11.90;99.90;;;;;;6128113;23;20414;-84
2021/09/25 03:36:30;;;;;;;10.83;9.40;;;11.90;99.90;;;;;;6128054;23;20450;-85
2021/09/25 03:38:58;;;;;;;9.93;8.93;;;11.80;99.90;;;;;;6127886;23;20415;-83
2021/09/25 03:41:25;;;;;;;11.77;10.57;;;11.80;99.90;;;;;;6127673;23;20772;-84
2021/09/25 03:43:52;;;;;;;9.80;8.80;;;11.80;99.90;;;;;;6127778;23;20422;-83
2021/09/25 03:46:19;;;;;;;11.20;10.00;;;11.80;99.90;;;;;;6127998;23;20475;-85
2021/09/25 03:48:47;;;;;;;11.43;10.30;;;11.70;99.90;;;;;;6128004;23;20410;-84
2021/09/25 03:51:14;;;;;;;11.67;10.57;;;11.70;99.90;;;;;;6128048;23;20440;-84
2021/09/25 03:53:41;;;;;;;11.97;9.87;;;11.70;99.90;;;;;;6128035;23;20410;-85
2021/09/25 03:56:09;;;;;;;12.20;10.57;;;11.70;99.90;;;;;;6127330;23;20469;-84
2021/09/25 03:58:36;;;;;;;13.93;11.03;;;11.60;99.90;;;;;;6127838;23;20415;-84
2021/09/25 04:01:03;;;;;;;11.97;10.10;;;11.60;99.90;;;;;;6127527;23;20439;-84
2021/09/25 04:03:30;;;;;;;11.40;10.10;;;11.60;99.90;;;;;;6127505;23;20930;-83
2021/09/25 04:05:58;;;;;;;12.17;11.07;;;11.60;99.90;;;;;;6127366;23;21002;-83
2021/09/25 04:08:25;;;;;;;11.10;9.90;;;11.60;99.90;;;;;;6127436;23;20907;-83
2021/09/25 04:10:51;;;;;;;12.67;11.50;;;11.60;99.90;;;;;;6127767;23;20414;-84
2021/09/25 04:13:20;;;;;;;13.50;12.20;;;11.50;99.90;;;;;;6127719;23;20419;-84
2021/09/25 04:15:46;;;;;;;13.30;11.57;;;11.50;99.90;;;;;;6127346;23;20776;-83
2021/09/25 04:18:13;;;;;;;12.50;11.30;;;11.50;99.90;;;;;;6127847;23;20414;-83
2021/09/25 04:20:40;;;;;;;16.37;12.47;;;11.40;99.90;;;;;;6127392;23;20441;-83
2021/09/25 04:23:07;;;;;;;13.80;11.37;;;11.50;99.90;;;;;;6127637;23;20436;-83
2021/09/25 04:25:33;;;;;;;14.83;11.40;;;11.40;99.90;;;;;;6127443;23;20406;-84
2021/09/25 04:28:04;;;;;;;13.97;12.57;;;11.40;99.90;;;;;;6127474;23;20414;-83
2021/09/25 04:30:32;;;;;;;13.87;12.47;;;11.40;99.90;;;;;;6135002;23;20458;-81
2021/09/25 04:32:59;;;;;;;13.63;11.87;;;11.30;99.90;;;;;;6134697;23;20441;-82
2021/09/25 04:35:26;;;;;;;12.67;11.47;;;11.30;99.90;;;;;;6133336;23;20442;-83
2021/09/25 04:37:53;;;;;;;13.00;11.70;;;11.30;99.90;;;;;;6127481;23;20907;-83
2021/09/25 04:40:20;;;;;;;11.93;10.77;;;11.30;99.90;;;;;;6127648;23;20415;-83
2021/09/25 04:42:46;;;;;;;11.90;10.30;;;11.30;99.90;;;;;;6127362;23;20445;-84
2021/09/25 04:45:13;;;;;;;13.13;11.77;;;11.30;99.90;;;;;;6127233;23;20425;-84
2021/09/25 04:47:42;;;;;;;12.33;10.87;;;11.30;99.90;;;;;;6126860;23;20426;-85
2021/09/25 04:50:10;;;;;;;13.60;11.40;;;11.30;99.90;;;;;;6127235;23;20418;-84
2021/09/25 04:52:36;;;;;;;17.83;10.70;;;11.30;99.90;;;;;;6127141;23;20429;-84
2021/09/25 04:55:04;;;;;;;12.43;10.93;;;11.30;99.90;;;;;;6126984;23;20932;-84
2021/09/25 04:57:31;;;;;;;10.87;9.20;;;11.30;99.90;;;;;;6127476;23;20414;-84
2021/09/25 04:59:58;;;;;;;10.10;9.10;;;11.30;99.90;;;;;;6127572;23;20418;-84
2021/09/25 05:02:25;;;;;;;11.43;10.30;;;11.30;99.90;;;;;;6127082;23;20457;-84
2021/09/25 05:04:53;;;;;;;9.93;8.87;;;11.30;99.90;;;;;;6127434;23;20917;-84
2021/09/25 05:07:20;;;;;;;10.47;9.37;;;11.30;99.90;;;;;;6127170;23;20894;-84
2021/09/25 05:09:46;;;;;;;9.33;8.43;;;11.30;99.90;;;;;;6127980;23;20417;-84
2021/09/25 05:12:13;;;;;;;11.30;10.17;;;11.30;99.90;;;;;;6127297;23;20442;-84
2021/09/25 05:14:40;;;;;;;10.50;9.47;;;11.30;99.90;;;;;;6126940;23;20406;-84
2021/09/25 05:17:08;;;;;;;11.50;10.30;;;11.30;99.90;;;;;;6127186;23;20456;-84
2021/09/25 05:19:35;;;;;;;10.63;9.50;;;11.30;99.90;;;;;;6127384;23;20417;-84
2021/09/25 05:22:03;;;;;;;12.60;10.60;;;11.30;99.90;;;;;;6126919;23;20427;-84
2021/09/25 05:24:31;;;;;;;12.23;9.30;;;11.30;99.90;;;;;;6127117;23;20412;-83
2021/09/25 05:26:57;;;;;;;9.73;8.80;;;11.40;99.90;;;;;;6126682;23;20417;-84
2021/09/25 05:29:24;;;;;;;10.83;9.70;;;11.40;99.90;;;;;;6127208;23;20419;-83
2021/09/25 05:31:51;;;;;;;12.43;9.60;;;11.40;99.90;;;;;;6126868;23;20465;-84
2021/09/25 05:34:18;;;;;;;10.43;9.37;;;11.40;99.90;;;;;;6126991;23;20411;-83
2021/09/25 05:36:44;;;;;;;11.30;10.27;;;11.40;99.90;;;;;;6126844;23;20453;-81
2021/09/25 05:39:12;;;;;;;10.93;8.57;;;11.40;99.90;;;;;;6127505;23;20741;-85
2021/09/25 05:41:39;;;;;;;9.37;8.37;;;11.40;99.90;;;;;;6126460;23;20950;-82
2021/09/25 05:44:06;;;;;;;9.67;8.70;;;11.40;99.90;;;;;;6126704;23;20423;-84
2021/09/25 05:46:32;;;;;;;11.30;9.53;;;11.40;99.90;;;;;;6126996;23;20407;-83
2021/09/25 05:48:59;;;;;;;10.40;9.30;;;11.50;99.90;;;;;;6126799;23;20476;-84
2021/09/25 05:51:26;;;;;;;11.47;10.37;;;11.50;99.90;;;;;;6127436;23;20452;-84
2021/09/25 05:53:53;;;;;;;11.70;10.23;;;11.40;99.90;;;;;;6126745;23;20736;-85
2021/09/25 05:56:21;;;;;;;9.43;8.50;;;11.40;99.90;;;;;;6126482;23;20465;-84
2021/09/25 05:58:48;;;;;;;11.90;10.00;;;11.40;99.90;;;;;;6127134;23;20508;-85
2021/09/25 06:01:15;;;;;;;13.97;11.60;;;11.40;99.90;;;;;;6126690;23;20434;-84
2021/09/25 06:03:41;;;;;;;11.23;10.13;;;11.40;99.90;;;;;;6126565;23;20419;-85
2021/09/25 06:06:08;;;;;;;14.20;12.77;;;11.40;99.90;;;;;;6126743;23;20414;-86
2021/09/25 06:08:35;;;;;;;12.40;11.20;;;11.50;99.90;;;;;;6127006;23;20415;-85
2021/09/25 06:11:02;;;;;;;12.80;11.53;;;11.50;99.90;;;;;;6126426;23;20902;-84
2021/09/25 06:13:30;;;;;;;10.57;9.47;;;11.40;99.90;;;;;;6127177;23;20730;-85
2021/09/25 06:15:57;;;;;;;11.70;10.60;;;11.50;99.90;;;;;;6126698;23;20442;-85
2021/09/25 06:18:23;;;;;;;11.30;10.10;;;11.50;99.90;;;;;;6126430;23;20932;-81
2021/09/25 06:20:50;;;;;;;12.17;11.07;;;11.60;99.90;;;;;;6126796;23;20411;-83
2021/09/25 06:23:18;;;;;;;12.57;11.27;;;11.60;99.90;;;;;;6126918;23;20414;-81
2021/09/25 06:25:45;;;;;;;12.03;10.83;;;11.70;99.90;;;;;;6126701;23;20407;-86
2021/09/25 06:28:11;;;;;;;11.77;10.67;;;11.80;99.90;;;;;;6128018;23;20414;-85
2021/09/25 06:30:41;;;;;;;11.43;10.23;;;11.80;99.90;;;;;;6128667;23;20440;-85
2021/09/25 06:33:08;;;;;;;11.43;9.77;;;11.90;99.90;;;;;;6128796;23;20427;-85
2021/09/25 06:35:34;;;;;;;11.57;10.37;;;11.90;99.90;;;;;;6127974;23;20950;-83
2021/09/25 06:38:01;;;;;;;16.60;11.07;;;12.00;99.90;;;;;;6129223;23;20415;-84
2021/09/25 06:40:28;;;;;;;12.63;11.37;;;12.10;99.90;;;;;;6130249;23;20412;-81
2021/09/25 06:42:55;;;;;;;11.07;9.77;;;12.20;99.90;;;;;;6130012;23;20443;-84
2021/09/25 06:45:22;;;;;;;10.93;9.80;;;12.20;99.90;;;;;;6129865;23;20418;-84
2021/09/25 06:47:50;;;;;;;11.47;10.27;;;12.30;99.90;;;;;;6129994;23;20407;-82
2021/09/25 06:50:16;;;;;;;9.70;8.73;;;12.40;99.90;;;;;;6130291;23;20724;-83
2021/09/25 06:52:43;;;;;;;10.30;9.30;;;12.50;99.90;;;;;;6128629;23;20434;-84
2021/09/25 06:55:11;;;;;;;10.50;9.57;;;12.60;99.90;;;;;;6127885;23;20416;-85
2021/09/25 06:57:37;;;;;;;10.67;9.37;;;12.70;99.90;;;;;;6128457;23;20769;-86
2021/09/25 07:00:06;;;;;;;10.67;9.77;;;12.80;99.90;;;;;;6128335;23;20412;-85
2021/09/25 07:02:37;;;;;;;10.13;8.47;;;12.90;99.90;;;;;;6128158;23;20443;-83
2021/09/25 07:05:07;;;;;;;11.53;9.53;;;13.00;99.90;;;;;;6128376;23;20421;-85
2021/09/25 07:07:34;;;;;;;11.50;9.00;;;13.10;99.90;;;;;;6128115;23;20397;-84
2021/09/25 07:10:02;;;;;;;11.20;9.43;;;13.20;99.90;;;;;;6128380;23;20408;-83
2021/09/25 07:12:29;;;;;;;10.80;9.80;;;13.30;99.90;;;;;;6128774;23;20428;-83
2021/09/25 07:14:56;;;;;;;9.37;8.50;;;13.50;99.90;;;;;;6128039;23;20455;-85
2021/09/25 07:17:23;;;;;;;8.53;7.83;;;13.50;99.90;;;;;;6127664;23;20455;-83
2021/09/25 07:19:50;;;;;;;8.77;7.97;;;13.70;99.90;;;;;;6128341;23;20443;-84
2021/09/25 07:22:18;;;;;;;8.90;8.00;;;13.80;99.90;;;;;;6128211;23;20427;-84
2021/09/25 07:24:46;;;;;;;7.93;7.13;;;13.90;99.90;;;;;;6128371;23;20417;-84
2021/09/25 07:27:13;;;;;;;8.10;7.40;;;14.00;99.90;;;;;;6128104;23;20416;-85
2021/09/25 07:29:39;;;;;;;8.07;7.27;;;14.00;99.90;;;;;;6127779;23;20419;-84
2021/09/25 07:32:06;;;;;;;7.23;6.67;;;14.10;99.90;;;;;;6127506;23;20447;-86
2021/09/25 07:34:33;;;;;;;7.87;7.00;;;14.20;99.90;;;;;;6128116;23;20431;-84
2021/09/25 07:37:00;;;;;;;7.23;6.63;;;14.40;99.90;;;;;;6127832;23;20960;-86
2021/09/25 07:39:28;;;;;;;7.03;6.43;;;14.50;99.90;;;;;;6127861;23;20412;-84
2021/09/25 07:41:55;;;;;;;6.60;6.00;;;14.70;99.90;;;;;;6128071;23;20432;-83
2021/09/25 07:44:21;;;;;;;7.87;7.10;;;14.80;99.90;;;;;;6128399;23;20397;-85
2021/09/25 07:46:48;;;;;;;7.80;7.03;;;14.90;99.90;;;;;;6127525;23;20411;-86
2021/09/25 07:49:15;;;;;;;6.10;5.60;;;15.00;99.90;;;;;;6128402;23;20413;-86
2021/09/25 07:51:42;;;;;;;5.77;5.27;;;15.20;99.90;;;;;;6128015;23;20455;-85
2021/09/25 07:54:09;;;;;;;6.53;5.93;;;15.40;99.90;;;;;;6128574;23;20877;-85
2021/09/25 07:56:37;;;;;;;6.77;6.07;;;15.50;99.90;;;;;;6127659;23;20451;-85
2021/09/25 07:59:04;;;;;;;7.20;6.50;;;15.60;99.90;;;;;;6127569;23;20417;-83
2021/09/25 08:01:30;;;;;;;5.80;5.30;;;15.80;99.90;;;;;;6127754;23;20432;-84
2021/09/25 08:03:57;;;;;;;6.73;6.13;;;15.90;99.90;;;;;;6126658;23;20748;-85
2021/09/25 08:06:24;;;;;;;6.43;5.80;;;16.10;99.90;;;;;;6126642;23;20409;-85
2021/09/25 08:08:51;;;;;;;8.20;7.50;;;16.10;99.90;;;;;;6126551;23;20421;-84
2021/09/25 08:11:18;;;;;;;15.67;6.73;;;16.20;99.90;;;;;;6126519;23;20429;-85
2021/09/25 08:13:46;;;;;;;6.43;5.93;;;16.40;99.90;;;;;;6127262;23;20417;-85
2021/09/25 08:16:13;;;;;;;7.07;6.47;;;16.50;99.90;;;;;;6125986;23;20976;-85
2021/09/25 08:18:40;;;;;;;6.57;6.00;;;16.50;99.90;;;;;;6126036;23;20417;-85
2021/09/25 08:21:06;;;;;;;7.53;6.87;;;16.60;99.90;;;;;;6126604;23;20441;-85
2021/09/25 08:23:33;;;;;;;7.10;6.50;;;16.80;99.90;;;;;;6126425;23;20476;-84
2021/09/25 08:26:00;;;;;;;5.50;5.00;;;16.90;99.90;;;;;;6126258;23;20424;-84
2021/09/25 08:28:27;;;;;;;6.43;5.80;;;17.10;99.90;;;;;;6127107;23;20905;-84
2021/09/25 08:30:55;;;;;;;7.97;6.80;;;17.20;99.90;;;;;;6126977;23;20414;-86
2021/09/25 08:33:22;;;;;;;6.33;5.73;;;17.30;99.90;;;;;;6126275;23;20413;-83
2021/09/25 08:35:49;;;;;;;6.73;6.17;;;17.30;99.90;;;;;;6126243;23;20424;-84
2021/09/25 08:38:15;;;;;;;6.20;5.60;;;17.40;99.90;;;;;;6127715;23;21004;-87
2021/09/25 08:40:42;;;;;;;5.73;5.23;;;17.40;99.90;;;;;;6127601;23;20417;-84
2021/09/25 08:43:09;;;;;;;6.13;5.53;;;17.60;99.90;;;;;;6133018;23;20754;-85
2021/09/25 08:45:36;;;;;;;5.40;4.90;;;17.80;99.90;;;;;;6135562;23;20418;-85
2021/09/25 08:48:06;;;;;;;5.10;4.70;;;17.90;99.90;;;;;;6126939;23;20447;-86
2021/09/25 08:50:34;;;;;;;5.20;4.70;;;18.00;99.90;;;;;;6106503;23;20425;-87
2021/09/25 08:53:20;;;;;;;5.83;5.23;;;18.10;99.90;;;;;;6135171;23;20439;-87
2021/09/25 08:55:48;;;;;;;5.53;5.07;;;18.20;99.90;;;;;;6111424;23;20415;-84
2021/09/25 08:58:15;;;;;;;7.30;6.47;;;18.40;99.90;;;;;;6137533;23;20454;-84
2021/09/25 09:00:54;;;;;;;7.23;6.53;;;18.50;99.90;;;;;;6137306;23;20463;-84
2021/09/25 09:03:48;;;;;;;9.17;7.13;;;18.60;99.90;;;;;;6132396;23;20415;-86
2021/09/25 09:06:17;;;;;;;5.93;5.40;;;18.80;99.90;;;;;;6127550;23;20399;-85
2021/09/25 09:08:46;;;;;;;7.43;6.67;;;18.90;99.90;;;;;;6124059;23;20447;-87
2021/09/25 09:11:14;;;;;;;6.53;6.03;;;19.00;99.90;;;;;;6129741;23;20494;-85
2021/09/25 09:13:43;;;;;;;8.33;6.07;;;19.20;99.90;;;;;;6127837;23;20907;-87
2021/09/25 09:16:12;;;;;;;7.17;6.00;;;19.30;99.90;;;;;;6123907;23;20416;-86
2021/09/25 09:18:43;;;;;;;8.13;6.00;;;19.40;99.90;;;;;;6123437;23;20795;-86
2021/09/25 09:21:13;;;;;;;8.97;5.70;;;19.50;99.90;;;;;;6124058;23;20488;-86
2021/09/25 09:23:44;;;;;;;6.03;5.43;;;19.60;99.90;;;;;;6125330;23;20419;-86
2021/09/25 09:26:13;;;;;;;7.30;5.60;;;19.70;99.90;;;;;;6126106;23;20412;-86
2021/09/25 09:28:41;;;;;;;8.47;6.63;;;19.80;99.90;;;;;;6146964;23;20400;-85
2021/09/25 09:31:09;;;;;;;6.70;6.10;;;20.00;99.90;;;;;;6148271;23;20484;-85
2021/09/25 09:33:38;;;;;;;6.73;5.60;;;20.10;99.90;;;;;;6145335;23;20423;-87
2021/09/25 09:36:25;;;;;;;11.10;7.00;;;20.20;99.90;;;;;;6125793;23;20872;-86
2021/09/25 09:38:54;;;;;;;6.40;5.80;;;20.30;99.90;;;;;;6130571;23;20427;-86
2021/09/25 09:41:23;;;;;;;6.63;5.73;;;20.40;99.90;;;;;;6129757;23;20955;-86
2021/09/25 09:43:51;;;;;;;5.80;5.30;;;20.50;99.90;;;;;;6130170;23;20427;-87
2021/09/25 09:46:18;;;;;;;5.60;5.20;;;20.60;99.60;;;;;;6123945;23;20415;-86
2021/09/25 09:48:47;;;;;;;5.67;5.20;;;20.70;99.50;;;;;;6123636;23;20403;-86
2021/09/25 09:51:14;;;;;;;5.47;5.07;;;20.80;99.70;;;;;;6124388;23;20429;-86
2021/09/25 09:53:49;;;;;;;6.03;5.53;;;20.80;99.40;;;;;;6125468;23;20413;-84
2021/09/25 09:56:17;;;;;;;7.10;5.50;;;21.00;98.80;;;;;;6128817;23;20400;-85
2021/09/25 09:58:45;;;;;;;6.73;5.97;;;21.20;99.50;;;;;;6132375;23;20453;-85
2021/09/25 10:01:12;;;;;;;6.80;5.80;;;21.40;99.90;;;;;;6134497;23;20434;-85
2021/09/25 10:03:39;;;;;;;7.17;5.57;;;21.60;98.50;;;;;;6135251;23;20863;-85
2021/09/25 10:06:06;;;;;;;7.13;5.13;;;21.80;97.30;;;;;;6135143;23;20411;-84
2021/09/25 10:08:33;;;;;;;6.30;5.70;;;21.90;97.20;;;;;;6134926;23;20394;-84
2021/09/25 10:11:02;;;;;;;6.93;6.10;;;22.00;96.60;;;;;;6133934;23;20411;-85
2021/09/25 10:13:29;;;;;;;7.10;6.50;;;22.20;97.40;;;;;;6133649;23;20425;-85
2021/09/25 10:15:56;;;;;;;6.17;5.60;;;22.30;96.70;;;;;;6133990;23;20494;-86
2021/09/25 10:18:45;;;;;;;8.20;7.40;;;22.40;96.50;;;;;;6133353;23;20450;-85
2021/09/25 10:21:14;;;;;;;5.90;5.37;;;22.60;96.60;;;;;;6133752;23;20435;-84
2021/09/25 10:23:47;;;;;;;5.57;5.07;;;22.70;96.70;;;;;;6135141;23;20930;-84
2021/09/25 10:26:17;;;;;;;5.33;4.83;;;22.90;95.60;;;;;;6131256;23;20395;-86
2021/09/25 10:28:53;;;;;;;5.30;4.80;;;23.10;95.90;;;;;;6126645;23;20741;-86
2021/09/25 10:31:21;;;;;;;5.63;5.13;;;23.30;95.70;;;;;;6125008;23;20438;-86
2021/09/25 10:34:08;;;;;;;6.13;4.63;;;23.50;95.90;;;;;;6125288;23;20744;-86
2021/09/25 10:36:39;;;;;;;8.20;5.57;;;23.70;94.70;;;;;;6125223;23;20420;-86
2021/09/25 10:39:17;;;;;;;5.33;4.83;;;23.90;95.00;;;;;;6126072;23;20411;-86
2021/09/25 10:41:46;;;;;;;5.37;4.87;;;24.10;94.00;;;;;;6125834;23;20431;-86
2021/09/25 10:44:26;;;;;;;4.83;4.17;;;24.20;92.40;;;;;;6126274;23;20407;-86
2021/09/25 10:46:53;;;;;;;5.97;5.20;;;24.40;93.30;;;;;;6126891;23;20411;-86
2021/09/25 10:49:19;;;;;;;5.40;5.00;;;24.60;92.00;;;;;;6126634;23;20408;-86
2021/09/25 10:51:49;;;;;;;5.40;5.00;;;24.90;92.80;;;;;;6126043;23;20745;-86
2021/09/25 10:54:16;;;;;;;4.47;4.07;;;25.20;92.70;;;;;;6126131;23;20930;-86
2021/09/25 10:56:48;;;;;;;5.90;5.40;;;25.90;93.50;;;;;;6126208;23;20791;-85
2021/09/25 10:59:14;;;;;;;4.37;4.07;;;26.70;91.40;;;;;;6126059;23;20398;-86
2021/09/25 11:01:43;;;;;;;5.63;5.03;;;27.40;90.60;;;;;;6125214;23;20456;-86
2021/09/25 11:04:12;;;;;;;5.77;5.27;;;28.00;84.20;;;;;;6126826;23;20428;-86
2021/09/25 11:06:42;;;;;;;4.93;4.53;;;28.60;82.20;;;;;;6125744;23;20458;-83
2021/09/25 11:09:10;;;;;;;6.00;5.60;;;29.10;81.60;;;;;;6125593;23;20412;-86
2021/09/25 11:11:40;;;;;;;5.03;4.73;;;29.30;77.90;;;;;;6125268;23;20434;-86
2021/09/25 11:14:14;;;;;;;4.57;4.27;;;29.40;76.80;;;;;;6125308;23;20422;-86
2021/09/25 11:16:46;;;;;;;5.23;4.90;;;30.00;78.00;;;;;;6125947;23;20887;-83
2021/09/25 11:19:38;;;;;;;6.13;5.63;;;30.40;73.20;;;;;;6128348;23;20434;-86
2021/09/25 11:22:08;;;;;;;4.63;4.33;;;30.50;73.20;;;;;;6131687;23;20436;-87
2021/09/25 11:24:38;;;;;;;5.53;5.03;;;30.80;73.30;;;;;;6127062;23;20489;-87
2021/09/25 11:27:09;;;;;;;5.00;4.60;;;31.10;69.30;;;;;;6127228;23;20412;-86
2021/09/25 11:30:00;;;;;;;5.33;4.93;;;31.40;68.30;;;;;;6127507;23;20428;-87
2021/09/25 11:32:29;;;;;;;4.90;4.50;;;32.00;65.80;;;;;;6127636;23;20426;-86
2021/09/25 11:34:57;;;;;;;5.53;5.10;;;32.50;66.70;;;;;;6131047;23;20425;-85
2021/09/25 11:37:24;;;;;;;5.43;4.93;;;33.00;65.00;;;;;;6132357;23;20417;-83
2021/09/25 11:39:54;;;;;;;6.20;5.80;;;33.50;62.10;;;;;;6129526;23;20416;-85
2021/09/25 11:42:26;;;;;;;5.20;4.80;;;34.00;60.40;;;;;;6126566;23;20451;-85
2021/09/25 11:44:59;;;;;;;4.67;4.37;;;34.50;60.00;;;;;;6126782;23;20922;-86
2021/09/25 11:47:33;;;;;;;4.93;4.63;;;34.70;57.20;;;;;;6126166;23;20535;-85
2021/09/25 11:50:20;;;;;;;4.93;4.63;;;34.90;56.00;;;;;;6126874;23;20428;-86
2021/09/25 11:56:06;;;;;;;5.67;5.27;;;35.30;55.30;;;;;;6112790;23;20438;-86
2021/09/25 11:58:35;;;;;;;4.67;4.27;;;35.80;55.10;;;;;;6128344;23;20403;-88
2021/09/25 12:01:03;;;;;;;5.43;5.03;;;36.00;52.60;;;;;;6126311;23;20500;-88
2021/09/25 12:03:33;;;;;;;10.70;9.83;;;36.00;52.10;;;;;;6126581;23;20403;-88
2021/09/25 12:06:02;;;;;;;7.47;6.80;;;35.70;51.30;;;;;;6126352;23;20400;-86
2021/09/25 12:08:30;;;;;;;5.00;4.70;;;35.90;53.60;;;;;;6126459;23;20951;-87
2021/09/25 12:10:59;;;;;;;5.37;4.93;;;36.10;52.80;;;;;;6126978;23;20419;-87
2021/09/25 12:13:28;;;;;;;6.10;5.67;;;36.10;51.30;;;;;;6126322;23;20531;-87
2021/09/25 12:15:56;;;;;;;5.87;5.23;;;36.40;52.10;;;;;;6125972;23;20774;-89
2021/09/25 12:18:26;;;;;;;5.53;5.10;;;36.90;50.20;;;;;;6125986;23;21117;-86
2021/09/25 12:20:55;;;;;;;4.73;4.43;;;37.40;49.40;;;;;;6125883;23;20396;-87
2021/09/25 12:23:25;;;;;;;4.53;4.13;;;37.60;47.90;;;;;;6126474;23;20422;-87
2021/09/25 12:25:53;;;;;;;4.40;4.10;;;37.30;46.80;;;;;;6118951;23;20411;-86
2021/09/25 12:28:32;;;;;;;7.70;7.10;;;37.20;46.80;;;;;;6133076;23;20474;-86
2021/09/25 12:31:00;;;;;;;9.17;8.37;;;37.40;47.50;;;;;;6134706;23;20418;-84
2021/09/25 12:33:55;;;;;;;10.60;9.60;;;37.60;47.60;;;;;;6125920;23;20400;-86
2021/09/25 12:36:32;;;;;;;8.83;8.23;;;37.70;46.50;;;;;;6124984;23;20424;-85
2021/09/25 12:39:02;;;;;;;7.10;6.60;;;38.00;46.10;;;;;;6125401;23;20392;-85
2021/09/25 12:41:52;;;;;;;6.70;6.20;;;38.30;45.00;;;;;;6125312;23;20431;-86
2021/09/25 12:44:20;;;;;;;5.53;5.13;;;38.50;44.10;;;;;;6127397;23;20427;-85
2021/09/25 12:46:49;;;;;;;4.00;3.70;;;38.90;43.30;;;;;;6134830;23;20416;-85